createdAt,value
2023-05-09T00:00:37.821Z,13.22
2023-05-09T00:01:35.412Z,14.07
2023-05-09T00:02:34.764Z,13.58
2023-05-09T00:03:33.410Z,14.67
2023-05-09T00:04:30.310Z,14.59
2023-05-09T00:05:27.198Z,14.03
2023-05-09T00:06:23.946Z,14.39
2023-05-09T00:07:20.771Z,14.05
2023-05-09T00:08:17.624Z,14.24
2023-05-09T00:09:14.534Z,14.73
2023-05-09T00:10:11.373Z,13.28
2023-05-09T00:11:08.203Z,15.06
2023-05-09T00:12:05.499Z,13.81
2023-05-09T00:13:02.456Z,14.80
2023-05-09T00:13:59.302Z,14.01
2023-05-09T00:14:56.875Z,14.95
2023-05-09T00:15:57.477Z,14.08
2023-05-09T00:16:55.078Z,14.15
2023-05-09T00:17:52.269Z,14.45
2023-05-09T00:18:49.026Z,14.66
2023-05-09T00:19:45.837Z,15.09
2023-05-09T00:20:44.308Z,14.91
2023-05-09T00:21:41.145Z,14.37
2023-05-09T00:22:41.041Z,14.89
2023-05-09T00:23:38.626Z,14.30
2023-05-09T00:24:35.738Z,14.21
2023-05-09T00:25:32.503Z,14.55
2023-05-09T00:26:29.337Z,14.10
2023-05-09T00:27:26.124Z,14.18
2023-05-09T00:28:22.822Z,14.32
2023-05-09T00:29:19.487Z,15.01
2023-05-09T00:30:16.186Z,14.72
2023-05-09T00:31:13.396Z,13.83
2023-05-09T00:32:10.839Z,14.50
2023-05-09T00:33:07.712Z,14.65
2023-05-09T00:34:04.485Z,14.32
2023-05-09T00:35:01.253Z,14.79
2023-05-09T00:35:57.989Z,14.47
2023-05-09T00:36:54.728Z,14.43
2023-05-09T00:37:51.519Z,14.37
2023-05-09T00:38:48.481Z,11.88
2023-05-09T00:39:46.155Z,14.27
2023-05-09T00:40:42.931Z,14.42
2023-05-09T00:41:39.683Z,13.62
2023-05-09T00:42:36.845Z,12.56
2023-05-09T00:43:33.695Z,12.88
2023-05-09T00:44:30.663Z,13.27
2023-05-09T00:45:27.624Z,13.61
2023-05-09T00:46:24.558Z,14.18
2023-05-09T00:47:23.911Z,14.79
2023-05-09T00:48:22.144Z,14.86
2023-05-09T00:49:18.970Z,14.96
2023-05-09T00:50:16.219Z,13.98
2023-05-09T00:51:13.081Z,14.74
2023-05-09T00:52:10.051Z,14.56
2023-05-09T00:53:07.450Z,14.55
2023-05-09T00:54:05.975Z,14.68
2023-05-09T00:55:05.353Z,14.57
2023-05-09T00:56:02.307Z,13.64
2023-05-09T00:56:59.235Z,14.08
2023-05-09T00:57:56.207Z,14.85
2023-05-09T00:58:53.022Z,14.42
2023-05-09T00:59:50.102Z,14.67
2023-05-09T01:00:47.077Z,14.45
2023-05-09T01:01:44.192Z,14.19
2023-05-09T01:02:51.058Z,13.54
2023-05-09T01:03:48.726Z,14.38
2023-05-09T01:04:46.956Z,14.59
2023-05-09T01:06:08.782Z,14.03
2023-05-09T01:07:34.756Z,13.16
2023-05-09T01:08:46.977Z,14.75
2023-05-09T01:10:04.970Z,14.99
2023-05-09T01:11:11.254Z,14.84
2023-05-09T01:12:22.391Z,15.17
2023-05-09T01:13:24.409Z,15.10
2023-05-09T01:14:44.511Z,14.95
2023-05-09T01:15:53.862Z,14.02
2023-05-09T01:16:51.085Z,15.01
2023-05-09T01:18:03.832Z,14.41
2023-05-09T01:19:06.752Z,15.14
2023-05-09T01:20:20.573Z,14.90
2023-05-09T01:21:40.758Z,15.10
2023-05-09T01:22:45.189Z,15.12
2023-05-09T01:23:44.726Z,15.17
2023-05-09T01:24:44.678Z,14.51
2023-05-09T01:25:57.100Z,14.54
2023-05-09T01:27:18.223Z,15.22
2023-05-09T01:28:32.464Z,14.82
2023-05-09T01:29:37.735Z,15.19
2023-05-09T01:30:37.843Z,15.09
2023-05-09T01:31:40.671Z,14.33
2023-05-09T01:32:42.742Z,14.69
2023-05-09T01:33:46.551Z,15.10
2023-05-09T01:34:51.543Z,14.88
2023-05-09T01:35:53.972Z,15.08
2023-05-09T01:36:55.918Z,14.80
2023-05-09T01:37:55.624Z,15.12
2023-05-09T01:38:53.382Z,14.64
2023-05-09T01:39:56.230Z,14.93
2023-05-09T01:40:57.050Z,15.08
2023-05-09T01:42:00.840Z,14.95
2023-05-09T01:43:05.745Z,14.93
2023-05-09T01:44:06.496Z,14.83
2023-05-09T01:45:06.936Z,13.81
2023-05-09T01:46:06.039Z,14.64
2023-05-09T01:48:07.044Z,14.34
2023-05-09T01:49:08.400Z,14.85
2023-05-09T01:50:09.158Z,14.86
2023-05-09T01:51:09.425Z,14.15
2023-05-09T01:52:11.471Z,14.10
2023-05-09T01:53:11.563Z,14.84
2023-05-09T01:54:10.134Z,14.58
2023-05-09T01:55:08.991Z,14.71
2023-05-09T01:56:09.669Z,14.70
2023-05-09T01:57:08.602Z,14.58
2023-05-09T01:58:07.030Z,13.59
2023-05-09T01:59:07.847Z,13.90
2023-05-09T02:00:08.027Z,13.74
2023-05-09T02:01:06.176Z,14.84
2023-05-09T02:02:07.832Z,14.71
2023-05-09T02:03:06.018Z,14.46
2023-05-09T02:04:05.584Z,14.12
2023-05-09T02:05:02.990Z,14.66
2023-05-09T02:06:03.521Z,14.58
2023-05-09T02:07:02.700Z,13.74
2023-05-09T02:07:59.634Z,14.56
2023-05-09T02:08:57.828Z,13.78
2023-05-09T02:09:57.546Z,14.69
2023-05-09T02:10:54.357Z,14.63
2023-05-09T02:11:51.188Z,13.85
2023-05-09T02:12:48.034Z,14.70
2023-05-09T02:13:44.973Z,14.20
2023-05-09T02:14:41.823Z,13.80
2023-05-09T02:15:43.106Z,14.11
2023-05-09T02:16:40.820Z,14.51
2023-05-09T02:17:38.091Z,13.71
2023-05-09T02:18:35.457Z,14.42
2023-05-09T02:19:35.065Z,14.53
2023-05-09T02:20:33.406Z,14.33
2023-05-09T02:21:30.782Z,13.88
2023-05-09T02:22:28.293Z,13.91
2023-05-09T02:23:25.246Z,13.88
2023-05-09T02:24:21.991Z,14.75
2023-05-09T02:25:18.888Z,14.56
2023-05-09T02:26:15.860Z,14.46
2023-05-09T02:27:14.886Z,14.65
2023-05-09T02:28:13.419Z,13.94
2023-05-09T02:29:12.487Z,14.00
2023-05-09T02:30:15.255Z,12.50
2023-05-09T02:31:14.508Z,12.49
2023-05-09T02:32:16.565Z,14.32
2023-05-09T02:33:14.507Z,14.27
2023-05-09T02:34:13.931Z,14.44
2023-05-09T02:35:15.228Z,14.74
2023-05-09T02:36:13.811Z,14.59
2023-05-09T02:37:10.927Z,14.64
2023-05-09T02:38:08.136Z,14.66
2023-05-09T02:39:05.027Z,14.72
2023-05-09T02:40:01.855Z,13.59
2023-05-09T02:40:58.585Z,14.83
2023-05-09T02:41:55.444Z,13.59
2023-05-09T02:42:52.195Z,13.15
2023-05-09T02:43:48.949Z,13.45
2023-05-09T02:44:45.745Z,14.28
2023-05-09T02:45:43.877Z,13.93
2023-05-09T02:46:40.966Z,14.35
2023-05-09T02:47:39.122Z,14.22
2023-05-09T02:48:36.413Z,14.15
2023-05-09T02:49:34.166Z,14.61
2023-05-09T02:50:30.942Z,14.57
2023-05-09T02:51:27.670Z,14.05
2023-05-09T02:52:24.600Z,14.60
2023-05-09T02:53:21.334Z,12.54
2023-05-09T02:54:18.419Z,14.41
2023-05-09T02:55:15.436Z,14.58
2023-05-09T02:56:12.462Z,13.54
2023-05-09T02:57:09.195Z,14.41
2023-05-09T02:58:13.331Z,14.17
2023-05-09T02:59:11.380Z,14.24
2023-05-09T03:00:11.658Z,13.54
2023-05-09T03:01:08.472Z,13.87
2023-05-09T03:02:05.406Z,13.48
2023-05-09T03:03:02.734Z,12.96
2023-05-09T03:03:59.545Z,12.64
2023-05-09T03:05:14.866Z,14.33
2023-05-09T03:06:11.867Z,13.49
2023-05-09T03:07:08.653Z,14.37
2023-05-09T03:08:05.627Z,14.31
2023-05-09T03:09:02.766Z,14.19
2023-05-09T03:09:59.496Z,14.08
2023-05-09T03:10:56.296Z,13.79
2023-05-09T03:11:53.074Z,13.89
2023-05-09T03:12:49.876Z,12.23
2023-05-09T03:13:46.696Z,13.43
2023-05-09T03:14:43.729Z,14.02
2023-05-09T03:15:40.520Z,14.27
2023-05-09T03:16:37.468Z,13.14
2023-05-09T03:17:34.409Z,13.88
2023-05-09T03:18:31.242Z,14.10
2023-05-09T03:19:28.077Z,14.14
2023-05-09T03:20:26.516Z,14.15
2023-05-09T03:21:23.361Z,14.17
2023-05-09T03:22:20.075Z,13.44
2023-05-09T03:23:16.748Z,14.09
2023-05-09T03:24:13.672Z,13.09
2023-05-09T03:25:10.487Z,13.53
2023-05-09T03:26:07.240Z,13.37
2023-05-09T03:27:03.961Z,13.55
2023-05-09T03:28:00.807Z,12.97
2023-05-09T03:28:57.543Z,12.86
2023-05-09T03:29:54.259Z,13.36
2023-05-09T03:30:51.002Z,13.45
2023-05-09T03:31:47.862Z,13.18
2023-05-09T03:32:44.795Z,12.91
2023-05-09T03:33:41.595Z,13.29
2023-05-09T03:34:38.400Z,14.13
2023-05-09T03:35:35.212Z,13.50
2023-05-09T03:36:32.351Z,13.05
2023-05-09T03:37:29.117Z,13.36
2023-05-09T03:38:25.866Z,14.03
2023-05-09T03:39:23.142Z,14.04
2023-05-09T03:40:19.879Z,13.55
2023-05-09T03:41:18.730Z,13.17
2023-05-09T03:42:15.707Z,13.58
2023-05-09T03:43:12.649Z,14.27
2023-05-09T03:44:09.459Z,13.94
2023-05-09T03:45:06.753Z,13.63
2023-05-09T03:46:04.022Z,13.60
2023-05-09T03:47:00.862Z,14.18
2023-05-09T03:47:57.860Z,13.77
2023-05-09T03:48:54.859Z,14.05
2023-05-09T03:49:53.588Z,13.79
2023-05-09T03:50:50.922Z,13.28
2023-05-09T03:51:47.686Z,13.79
2023-05-09T03:52:44.464Z,14.38
2023-05-09T03:53:41.177Z,12.39
2023-05-09T03:54:37.960Z,14.40
2023-05-09T03:55:34.710Z,13.49
2023-05-09T03:56:31.439Z,14.09
2023-05-09T03:57:28.129Z,13.60
2023-05-09T03:58:24.856Z,14.35
2023-05-09T03:59:21.643Z,14.35
2023-05-09T04:00:18.737Z,13.73
2023-05-09T04:01:16.219Z,14.05
2023-05-09T04:02:13.105Z,13.90
2023-05-09T04:03:10.105Z,13.67
2023-05-09T04:04:07.025Z,13.11
2023-05-09T04:05:04.286Z,13.61
2023-05-09T04:06:01.241Z,13.78
2023-05-09T04:06:58.040Z,14.26
2023-05-09T04:07:54.918Z,14.72
2023-05-09T04:08:52.243Z,14.53
2023-05-09T04:09:49.630Z,13.92
2023-05-09T04:10:46.483Z,14.51
2023-05-09T04:11:43.305Z,14.40
2023-05-09T04:12:40.118Z,14.09
2023-05-09T04:13:36.976Z,13.35
2023-05-09T04:14:33.705Z,13.44
2023-05-09T04:15:30.479Z,13.97
2023-05-09T04:16:27.351Z,13.73
2023-05-09T04:17:24.183Z,14.49
2023-05-09T04:18:20.882Z,13.85
2023-05-09T04:19:17.696Z,14.38
2023-05-09T04:20:15.172Z,14.37
2023-05-09T04:21:11.969Z,14.43
2023-05-09T04:22:08.683Z,14.61
2023-05-09T04:23:06.021Z,14.71
2023-05-09T04:24:02.831Z,14.13
2023-05-09T04:24:59.676Z,14.61
2023-05-09T04:25:56.994Z,14.56
2023-05-09T04:26:53.835Z,14.59
2023-05-09T04:27:50.547Z,14.13
2023-05-09T04:28:47.384Z,15.19
2023-05-09T04:29:44.206Z,14.78
2023-05-09T04:30:40.902Z,14.92
2023-05-09T04:31:37.699Z,15.14
2023-05-09T04:32:35.795Z,13.98
2023-05-09T04:33:32.810Z,15.28
2023-05-09T04:34:29.877Z,12.94
2023-05-09T04:35:27.239Z,14.95
2023-05-09T04:36:24.211Z,14.47
2023-05-09T04:37:20.953Z,14.35
2023-05-09T04:38:18.054Z,15.33
2023-05-09T04:39:14.831Z,15.44
2023-05-09T04:40:11.964Z,14.86
2023-05-09T04:41:08.717Z,15.32
2023-05-09T04:42:05.841Z,14.92
2023-05-09T04:43:04.241Z,13.76
2023-05-09T04:44:02.028Z,14.74
2023-05-09T04:44:58.847Z,15.44
2023-05-09T04:45:55.627Z,15.02
2023-05-09T04:46:52.574Z,15.07
2023-05-09T04:47:49.352Z,15.08
2023-05-09T04:48:46.152Z,14.40
2023-05-09T04:49:42.868Z,14.86
2023-05-09T04:50:40.935Z,14.88
2023-05-09T04:51:37.663Z,14.37
2023-05-09T04:52:34.383Z,14.45
2023-05-09T04:53:31.973Z,14.29
2023-05-09T04:54:28.710Z,14.05
2023-05-09T04:55:25.597Z,15.15
2023-05-09T04:56:22.755Z,14.25
2023-05-09T04:57:19.642Z,15.12
2023-05-09T04:58:16.517Z,14.58
2023-05-09T04:59:13.271Z,15.21
2023-05-09T05:00:11.946Z,14.44
2023-05-09T05:01:08.721Z,15.24
2023-05-09T05:02:05.717Z,15.06
2023-05-09T05:03:02.614Z,14.99
2023-05-09T05:03:59.358Z,14.45
2023-05-09T05:05:06.174Z,14.81
2023-05-09T05:06:07.435Z,14.85
2023-05-09T05:07:05.229Z,14.83
2023-05-09T05:08:02.055Z,15.00
2023-05-09T05:08:58.823Z,14.24
2023-05-09T05:09:55.834Z,14.46
2023-05-09T05:10:52.595Z,14.51
2023-05-09T05:11:59.597Z,14.13
2023-05-09T05:12:57.879Z,13.32
2023-05-09T05:13:54.669Z,14.50
2023-05-09T05:14:51.487Z,14.73
2023-05-09T05:15:48.373Z,14.76
2023-05-09T05:16:45.175Z,13.96
2023-05-09T05:17:41.930Z,14.86
2023-05-09T05:18:38.758Z,13.80
2023-05-09T05:19:35.710Z,14.48
2023-05-09T05:20:32.849Z,14.40
2023-05-09T05:21:29.641Z,13.75
2023-05-09T05:22:26.377Z,14.66
2023-05-09T05:23:23.144Z,14.86
2023-05-09T05:24:19.905Z,14.25
2023-05-09T05:25:17.864Z,14.02
2023-05-09T05:26:14.688Z,13.62
2023-05-09T05:27:11.426Z,13.78
2023-05-09T05:28:08.100Z,14.81
2023-05-09T05:29:04.864Z,14.49
2023-05-09T05:30:01.965Z,13.89
2023-05-09T05:30:58.829Z,14.41
2023-05-09T05:31:55.810Z,13.81
2023-05-09T05:32:52.927Z,14.45
2023-05-09T05:33:49.791Z,12.98
2023-05-09T05:34:46.577Z,13.41
2023-05-09T05:35:43.344Z,14.77
2023-05-09T05:36:40.109Z,14.06
2023-05-09T05:37:36.903Z,14.10
2023-05-09T05:38:33.663Z,14.69
2023-05-09T05:39:30.396Z,14.24
2023-05-09T05:40:27.262Z,14.99
2023-05-09T05:41:24.153Z,15.14
2023-05-09T05:42:21.089Z,13.44
2023-05-09T05:43:18.508Z,15.47
2023-05-09T05:44:15.297Z,15.02
2023-05-09T05:45:12.574Z,15.20
2023-05-09T05:46:10.448Z,15.54
2023-05-09T05:47:07.227Z,15.75
2023-05-09T05:48:04.187Z,15.82
2023-05-09T05:49:00.963Z,14.97
2023-05-09T05:49:57.738Z,15.76
2023-05-09T05:50:54.745Z,15.25
2023-05-09T05:51:51.657Z,14.74
2023-05-09T05:52:48.409Z,15.87
2023-05-09T05:53:45.297Z,15.95
2023-05-09T05:54:42.014Z,16.01
2023-05-09T05:55:39.207Z,16.11
2023-05-09T05:56:35.923Z,16.00
2023-05-09T05:57:32.761Z,16.09
2023-05-09T05:58:29.495Z,15.93
2023-05-09T05:59:26.211Z,16.10
2023-05-09T06:00:22.979Z,15.76
2023-05-09T06:01:19.745Z,16.95
2023-05-09T06:02:17.958Z,16.25
2023-05-09T06:03:14.896Z,16.97
2023-05-09T06:04:11.722Z,16.68
2023-05-09T06:05:08.798Z,15.82
2023-05-09T06:06:05.908Z,16.67
2023-05-09T06:07:02.778Z,16.86
2023-05-09T06:07:59.608Z,14.83
2023-05-09T06:08:57.426Z,16.72
2023-05-09T06:09:54.221Z,15.38
2023-05-09T06:10:51.025Z,16.02
2023-05-09T06:11:47.770Z,16.27
2023-05-09T06:12:44.571Z,16.80
2023-05-09T06:13:41.306Z,16.74
2023-05-09T06:14:38.061Z,16.24
2023-05-09T06:15:34.822Z,16.21
2023-05-09T06:16:31.781Z,17.33
2023-05-09T06:17:28.747Z,17.27
2023-05-09T06:18:25.705Z,15.66
2023-05-09T06:19:22.492Z,17.11
2023-05-09T06:20:19.356Z,15.98
2023-05-09T06:21:16.195Z,16.48
2023-05-09T06:22:12.917Z,16.21
2023-05-09T06:23:10.214Z,16.63
2023-05-09T06:24:14.187Z,16.60
2023-05-09T06:25:17.023Z,15.84
2023-05-09T06:26:14.913Z,16.09
2023-05-09T06:27:11.810Z,14.71
2023-05-09T06:28:08.531Z,15.18
2023-05-09T06:29:08.344Z,15.61
2023-05-09T06:30:14.179Z,15.15
2023-05-09T06:31:21.975Z,15.92
2023-05-09T06:32:19.634Z,14.91
2023-05-09T06:33:16.727Z,15.37
2023-05-09T06:34:13.779Z,15.85
2023-05-09T06:35:10.632Z,16.17
2023-05-09T06:36:10.217Z,15.94
2023-05-09T06:37:06.997Z,16.07
2023-05-09T06:38:03.713Z,16.86
2023-05-09T06:39:01.046Z,15.65
2023-05-09T06:39:57.855Z,16.96
2023-05-09T06:40:54.937Z,16.44
2023-05-09T06:41:51.717Z,16.86
2023-05-09T06:42:48.462Z,16.95
2023-05-09T06:43:45.665Z,17.82
2023-05-09T06:44:43.901Z,17.84
2023-05-09T06:45:40.784Z,17.14
2023-05-09T06:46:37.609Z,16.38
2023-05-09T06:47:34.590Z,16.45
2023-05-09T06:48:31.571Z,16.81
2023-05-09T06:49:28.438Z,16.05
2023-05-09T06:50:25.263Z,15.78
2023-05-09T06:51:22.058Z,15.26
2023-05-09T06:52:21.538Z,15.93
2023-05-09T06:53:18.422Z,15.60
2023-05-09T06:54:17.192Z,15.05
2023-05-09T06:55:14.259Z,15.98
2023-05-09T06:56:11.859Z,16.62
2023-05-09T06:57:08.850Z,15.99
2023-05-09T06:58:05.656Z,16.35
2023-05-09T06:59:02.382Z,16.10
2023-05-09T06:59:59.226Z,15.83
2023-05-09T07:00:56.198Z,15.79
2023-05-09T07:01:53.202Z,15.94
2023-05-09T07:02:50.020Z,16.09
2023-05-09T07:03:47.699Z,16.07
2023-05-09T07:04:44.462Z,15.72
2023-05-09T07:05:41.454Z,15.10
2023-05-09T07:06:38.652Z,15.58
2023-05-09T07:07:35.788Z,15.42
2023-05-09T07:08:32.966Z,16.46
2023-05-09T07:09:29.862Z,15.68
2023-05-09T07:10:26.872Z,14.38
2023-05-09T07:11:23.701Z,15.54
2023-05-09T07:12:20.577Z,15.37
2023-05-09T07:13:17.477Z,15.56
2023-05-09T07:14:18.406Z,16.27
2023-05-09T07:15:20.575Z,15.47
2023-05-09T07:16:25.896Z,15.08
2023-05-09T07:17:24.618Z,16.36
2023-05-09T07:18:21.718Z,15.46
2023-05-09T07:19:18.633Z,15.34
2023-05-09T07:20:15.446Z,14.14
2023-05-09T07:21:12.269Z,14.70
2023-05-09T07:22:09.089Z,14.97
2023-05-09T07:23:06.200Z,15.37
2023-05-09T07:24:03.623Z,15.64
2023-05-09T07:25:00.485Z,15.26
2023-05-09T07:26:01.607Z,15.55
2023-05-09T07:26:58.358Z,16.23
2023-05-09T07:27:55.097Z,15.47
2023-05-09T07:28:51.815Z,15.57
2023-05-09T07:29:51.398Z,15.83
2023-05-09T07:30:48.240Z,16.44
2023-05-09T07:31:45.073Z,16.18
2023-05-09T07:32:42.055Z,16.37
2023-05-09T07:33:38.889Z,16.61
2023-05-09T07:34:36.766Z,15.89
2023-05-09T07:35:33.586Z,16.44
2023-05-09T07:36:30.272Z,14.72
2023-05-09T07:37:27.048Z,16.06
2023-05-09T07:38:23.777Z,15.12
2023-05-09T07:39:20.572Z,14.43
2023-05-09T07:40:17.899Z,15.53
2023-05-09T07:41:15.466Z,14.44
2023-05-09T07:42:12.385Z,15.57
2023-05-09T07:43:09.315Z,15.45
2023-05-09T07:44:06.063Z,14.52
2023-05-09T07:45:06.092Z,15.34
2023-05-09T07:46:03.017Z,14.96
2023-05-09T07:47:01.144Z,14.48
2023-05-09T07:47:57.872Z,15.85
2023-05-09T07:48:54.619Z,15.62
2023-05-09T07:49:51.855Z,15.03
2023-05-09T07:50:48.740Z,16.21
2023-05-09T07:51:45.630Z,15.56
2023-05-09T07:52:42.392Z,16.34
2023-05-09T07:53:39.131Z,15.52
2023-05-09T07:54:35.813Z,16.22
2023-05-09T07:55:32.629Z,16.00
2023-05-09T07:56:29.392Z,15.45
2023-05-09T07:57:26.244Z,15.11
2023-05-09T07:58:23.034Z,14.90
2023-05-09T07:59:19.815Z,15.44
2023-05-09T08:00:17.392Z,16.17
2023-05-09T08:01:14.117Z,15.78
2023-05-09T08:02:10.994Z,16.03
2023-05-09T08:03:08.001Z,16.06
2023-05-09T08:04:09.175Z,16.14
2023-05-09T08:05:06.678Z,15.83
2023-05-09T08:06:04.149Z,14.99
2023-05-09T08:07:04.081Z,15.63
2023-05-09T08:08:00.983Z,16.17
2023-05-09T08:08:57.714Z,15.92
2023-05-09T08:09:56.071Z,16.12
2023-05-09T08:10:52.826Z,15.48
2023-05-09T08:11:49.746Z,16.01
2023-05-09T08:12:46.551Z,15.96
2023-05-09T08:13:43.349Z,15.87
2023-05-09T08:14:40.105Z,15.19
2023-05-09T08:15:39.673Z,15.79
2023-05-09T08:16:36.571Z,15.88
2023-05-09T08:17:33.626Z,15.05
2023-05-09T08:18:30.789Z,14.78
2023-05-09T08:19:27.579Z,15.45
2023-05-09T08:20:24.438Z,15.80
2023-05-09T08:21:22.456Z,14.88
2023-05-09T08:22:20.378Z,14.61
2023-05-09T08:23:17.302Z,16.15
2023-05-09T08:24:14.015Z,15.92
2023-05-09T08:25:11.025Z,15.88
2023-05-09T08:26:08.330Z,15.62
2023-05-09T08:27:05.439Z,15.92
2023-05-09T08:28:02.360Z,15.97
2023-05-09T08:28:59.105Z,16.01
2023-05-09T08:29:55.904Z,16.03
2023-05-09T08:30:52.669Z,16.49
2023-05-09T08:31:50.660Z,15.73
2023-05-09T08:32:47.701Z,16.21
2023-05-09T08:33:44.520Z,15.98
2023-05-09T08:34:41.413Z,16.44
2023-05-09T08:35:38.177Z,16.57
2023-05-09T08:36:35.050Z,16.05
2023-05-09T08:37:31.961Z,16.30
2023-05-09T08:38:28.924Z,16.12
2023-05-09T08:39:25.625Z,16.86
2023-05-09T08:40:22.614Z,15.97
2023-05-09T08:41:28.085Z,16.72
2023-05-09T08:42:26.625Z,15.78
2023-05-09T08:43:23.904Z,15.51
2023-05-09T08:44:23.508Z,13.90
2023-05-09T08:45:27.538Z,15.55
2023-05-09T08:46:34.007Z,15.96
2023-05-09T08:47:34.483Z,15.76
2023-05-09T08:48:36.061Z,15.74
2023-05-09T08:49:35.786Z,16.90
2023-05-09T08:50:33.065Z,16.69
2023-05-09T08:51:32.344Z,16.40
2023-05-09T08:52:32.327Z,16.53
2023-05-09T08:53:29.406Z,16.73
2023-05-09T08:54:26.613Z,15.85
2023-05-09T08:55:23.753Z,16.70
2023-05-09T08:56:21.536Z,17.13
2023-05-09T08:57:18.602Z,15.96
2023-05-09T08:58:17.071Z,16.51
2023-05-09T08:59:15.114Z,15.70
2023-05-09T09:00:13.954Z,16.58
2023-05-09T09:01:14.459Z,17.31
2023-05-09T09:02:14.600Z,16.63
2023-05-09T09:03:11.946Z,14.15
2023-05-09T09:04:09.442Z,16.66
2023-05-09T09:06:07.895Z,14.74
2023-05-09T09:07:06.703Z,14.34
2023-05-09T09:08:07.574Z,15.53
2023-05-09T09:09:07.137Z,16.31
2023-05-09T09:10:04.574Z,16.23
2023-05-09T09:11:02.853Z,15.36
2023-05-09T09:12:00.136Z,16.84
2023-05-09T09:13:00.665Z,16.86
2023-05-09T09:14:03.533Z,16.93
2023-05-09T09:15:05.429Z,17.25
2023-05-09T09:16:02.690Z,17.22
2023-05-09T09:17:01.560Z,16.96
2023-05-09T09:18:08.949Z,17.07
2023-05-09T09:19:12.354Z,17.14
2023-05-09T09:20:14.571Z,16.38
2023-05-09T09:21:15.896Z,16.47
2023-05-09T09:22:18.685Z,15.62
2023-05-09T09:23:20.685Z,16.71
2023-05-09T09:24:22.683Z,16.26
2023-05-09T09:25:19.436Z,15.77
2023-05-09T09:26:16.560Z,16.79
2023-05-09T09:27:13.588Z,15.34
2023-05-09T09:28:11.377Z,15.68
2023-05-09T09:29:08.552Z,15.63
2023-05-09T09:30:10.052Z,16.17
2023-05-09T09:31:24.409Z,16.94
2023-05-09T09:32:23.068Z,16.91
2023-05-09T09:33:21.547Z,16.46
2023-05-09T09:34:23.245Z,16.41
2023-05-09T09:35:20.559Z,17.26
2023-05-09T09:36:27.428Z,15.77
2023-05-09T09:37:24.597Z,16.49
2023-05-09T09:38:23.394Z,16.72
2023-05-09T09:39:21.763Z,16.47
2023-05-09T09:40:19.019Z,16.38
2023-05-09T09:41:15.950Z,15.30
2023-05-09T09:42:13.062Z,16.94
2023-05-09T09:43:09.785Z,15.84
2023-05-09T09:44:11.630Z,16.93
2023-05-09T09:45:13.947Z,17.51
2023-05-09T09:46:10.891Z,16.55
2023-05-09T09:47:10.808Z,16.37
2023-05-09T09:48:07.720Z,17.15
2023-05-09T09:49:04.617Z,16.56
2023-05-09T09:50:16.158Z,17.21
2023-05-09T09:51:13.205Z,17.21
2023-05-09T09:52:09.973Z,18.18
2023-05-09T09:53:07.267Z,18.07
2023-05-09T09:54:05.088Z,17.78
2023-05-09T09:55:02.258Z,17.17
2023-05-09T09:55:59.620Z,17.90
2023-05-09T09:56:57.034Z,17.97
2023-05-09T09:57:53.909Z,17.23
2023-05-09T09:58:50.748Z,17.00
2023-05-09T09:59:59.589Z,16.93
2023-05-09T10:01:09.106Z,17.80
2023-05-09T10:02:09.455Z,17.32
2023-05-09T10:03:06.384Z,17.48
2023-05-09T10:04:03.505Z,16.93
2023-05-09T10:05:07.966Z,16.35
2023-05-09T10:06:05.503Z,17.86
2023-05-09T10:07:05.901Z,17.32
2023-05-09T10:08:05.123Z,16.61
2023-05-09T10:09:01.944Z,16.86
2023-05-09T10:09:58.841Z,16.79
2023-05-09T10:10:55.818Z,17.11
2023-05-09T10:11:54.121Z,17.43
2023-05-09T10:12:54.239Z,16.87
2023-05-09T10:13:51.532Z,17.05
2023-05-09T10:14:48.910Z,17.60
2023-05-09T10:15:53.515Z,17.15
2023-05-09T10:16:55.032Z,17.11
2023-05-09T10:17:56.486Z,18.05
2023-05-09T10:18:53.771Z,17.09
2023-05-09T10:19:51.494Z,17.03
2023-05-09T10:20:48.476Z,17.84
2023-05-09T10:21:51.504Z,17.48
2023-05-09T10:22:50.479Z,17.63
2023-05-09T10:23:52.795Z,16.82
2023-05-09T10:25:27.967Z,17.92
2023-05-09T10:26:31.964Z,17.58
2023-05-09T10:27:32.477Z,17.52
2023-05-09T10:28:33.615Z,17.33
2023-05-09T10:29:35.786Z,17.19
2023-05-09T10:30:41.057Z,17.48
2023-05-09T10:31:43.546Z,17.34
2023-05-09T10:32:53.914Z,17.32
2023-05-09T10:33:51.514Z,17.22
2023-05-09T10:34:53.717Z,17.09
2023-05-09T10:35:54.445Z,16.92
2023-05-09T10:36:51.782Z,17.49
2023-05-09T10:37:48.672Z,17.36
2023-05-09T10:38:47.255Z,17.87
2023-05-09T10:39:44.253Z,16.03
2023-05-09T10:40:41.325Z,17.61
2023-05-09T10:41:39.746Z,17.73
2023-05-09T10:42:37.391Z,17.66
2023-05-09T10:43:53.028Z,17.30
2023-05-09T10:44:50.571Z,17.72
2023-05-09T10:45:48.189Z,17.27
2023-05-09T10:46:46.075Z,17.87
2023-05-09T10:47:46.524Z,16.61
2023-05-09T10:48:44.805Z,17.85
2023-05-09T10:49:44.230Z,17.63
2023-05-09T10:50:42.670Z,17.38
2023-05-09T10:51:39.673Z,16.90
2023-05-09T10:53:08.668Z,17.84
2023-05-09T10:54:15.167Z,17.21
2023-05-09T10:55:12.961Z,17.74
2023-05-09T10:56:22.200Z,16.92
2023-05-09T10:57:19.934Z,17.24
2023-05-09T10:58:25.165Z,16.86
2023-05-09T10:59:40.605Z,17.04
2023-05-09T11:00:43.972Z,16.84
2023-05-09T11:01:40.816Z,16.96
2023-05-09T11:02:39.190Z,17.10
2023-05-09T11:04:09.000Z,16.63
2023-05-09T11:05:17.523Z,16.97
2023-05-09T11:06:40.527Z,16.94
2023-05-09T11:07:37.290Z,16.98
2023-05-09T11:08:34.261Z,15.92
2023-05-09T11:09:40.048Z,16.67
2023-05-09T11:10:43.085Z,16.00
2023-05-09T11:11:57.816Z,17.15
2023-05-09T11:12:57.763Z,17.02
2023-05-09T11:13:58.037Z,16.67
2023-05-09T11:15:05.877Z,16.70
2023-05-09T11:16:02.685Z,17.25
2023-05-09T11:17:02.190Z,17.26
2023-05-09T11:18:07.760Z,16.89
2023-05-09T11:19:05.991Z,17.77
2023-05-09T11:20:06.614Z,17.60
2023-05-09T11:21:09.771Z,17.48
2023-05-09T11:22:22.850Z,17.80
2023-05-09T11:23:21.595Z,16.29
2023-05-09T11:24:19.063Z,17.66
2023-05-09T11:25:17.162Z,17.59
2023-05-09T11:26:16.037Z,17.45
2023-05-09T11:27:28.440Z,17.49
2023-05-09T11:28:53.660Z,17.47
2023-05-09T11:30:04.668Z,17.86
2023-05-09T11:31:11.691Z,17.00
2023-05-09T11:32:08.735Z,16.95
2023-05-09T11:33:06.977Z,18.21
2023-05-09T11:34:06.492Z,17.85
2023-05-09T11:35:15.333Z,17.66
2023-05-09T11:36:31.957Z,17.73
2023-05-09T11:37:31.248Z,18.03
2023-05-09T11:38:42.743Z,18.14
2023-05-09T11:39:58.886Z,17.93
2023-05-09T11:40:56.085Z,17.48
2023-05-09T11:41:53.931Z,17.74
2023-05-09T11:42:56.290Z,16.27
2023-05-09T11:43:56.479Z,18.07
2023-05-09T11:44:54.024Z,17.65
2023-05-09T11:45:51.476Z,16.47
2023-05-09T11:46:49.507Z,18.01
2023-05-09T11:47:48.101Z,17.33
2023-05-09T11:48:44.943Z,17.33
2023-05-09T11:49:45.489Z,17.84
2023-05-09T11:50:42.271Z,18.11
2023-05-09T11:51:39.556Z,18.28
2023-05-09T11:52:41.130Z,17.76
2023-05-09T11:53:46.851Z,16.57
2023-05-09T11:54:43.717Z,17.74
2023-05-09T11:55:41.536Z,17.69
2023-05-09T11:56:41.102Z,18.19
2023-05-09T11:57:50.197Z,17.78
2023-05-09T11:58:47.078Z,17.38
2023-05-09T11:59:45.657Z,17.84
2023-05-09T12:00:46.365Z,17.52
2023-05-09T12:01:43.193Z,16.90
2023-05-09T12:02:40.222Z,17.88
2023-05-09T12:03:45.192Z,17.76
2023-05-09T12:04:42.183Z,17.67
2023-05-09T12:05:42.711Z,16.98
2023-05-09T12:06:39.757Z,17.51
2023-05-09T12:07:38.066Z,17.67
2023-05-09T12:08:34.946Z,17.49
2023-05-09T12:09:38.683Z,18.02
2023-05-09T12:10:39.558Z,17.88
2023-05-09T12:11:37.348Z,17.70
2023-05-09T12:12:49.416Z,17.34
2023-05-09T12:13:50.366Z,16.67
2023-05-09T12:14:48.653Z,16.66
2023-05-09T12:15:45.522Z,17.85
2023-05-09T12:16:46.887Z,14.95
2023-05-09T12:17:45.083Z,16.72
2023-05-09T12:18:52.694Z,16.73
2023-05-09T12:19:49.547Z,17.15
2023-05-09T12:20:50.218Z,17.60
2023-05-09T12:21:46.942Z,17.40
2023-05-09T12:22:44.350Z,15.75
2023-05-09T12:23:41.277Z,16.68
2023-05-09T12:24:38.182Z,16.98
2023-05-09T12:25:34.895Z,17.26
2023-05-09T12:26:32.193Z,16.06
2023-05-09T12:27:29.839Z,17.71
2023-05-09T12:28:27.681Z,17.46
2023-05-09T12:29:25.929Z,17.04
2023-05-09T12:30:22.847Z,17.68
2023-05-09T12:31:21.041Z,17.52
2023-05-09T12:32:18.633Z,16.42
2023-05-09T12:33:16.248Z,17.53
2023-05-09T12:34:13.722Z,16.49
2023-05-09T12:35:11.292Z,17.74
2023-05-09T12:36:11.733Z,17.03
2023-05-09T12:37:16.850Z,16.59
2023-05-09T12:38:23.400Z,17.42
2023-05-09T12:39:24.626Z,16.21
2023-05-09T12:40:21.483Z,17.05
2023-05-09T12:41:35.114Z,17.29
2023-05-09T12:42:36.078Z,17.04